Time,TemperatureF,DewpointF,PressureIn,WindDirection,WindDirectionDegrees,WindSpeedMPH,WindSpeedGustMPH,Humidity,HourlyPrecipIn,Conditions,Clouds,dailyrainin,SoftwareType,DateUTC
2013-07-30 00:03:00,68.0,63.0,30.05,ESE,113,0.0,0.0,85,0.00,,,0.00,,2013-07-30 04:03:00,
2013-07-30 00:43:00,67.0,61.0,30.05,ESE,113,0.0,0.0,82,0.00,,,0.00,,2013-07-30 04:43:00,
2013-07-30 00:53:00,66.0,61.0,30.05,ESE,113,0.0,0.0,83,0.00,,,0.00,,2013-07-30 04:53:00,
2013-07-30 01:03:00,65.0,60.0,30.05,West,270,0.0,0.0,83,0.00,,,0.00,,2013-07-30 05:03:00,
2013-07-30 01:13:00,65.0,60.0,30.05,West,270,0.0,0.0,83,0.00,,,0.00,,2013-07-30 05:13:00,
2013-07-30 01:23:00,65.0,60.0,30.05,SSW,203,0.0,0.0,83,0.00,,,0.00,,2013-07-30 05:23:00,
2013-07-30 01:45:00,65.0,60.0,30.05,NNE,23,0.0,0.0,83,0.00,,,0.00,,2013-07-30 05:45:00,
2013-07-30 02:03:00,65.0,60.0,30.05,NNE,23,0.0,0.0,83,0.00,,,0.00,,2013-07-30 06:03:00,
2013-07-30 02:13:00,65.0,60.0,30.05,NE,45,0.0,0.0,84,0.00,,,0.00,,2013-07-30 06:13:00,
2013-07-30 02:23:00,64.0,59.0,30.05,NE,45,0.0,0.0,84,0.00,,,0.00,,2013-07-30 06:23:00,
2013-07-30 02:33:00,64.0,59.0,30.05,NE,45,0.0,0.0,84,0.00,,,0.00,,2013-07-30 06:33:00,
2013-07-30 02:43:00,64.0,59.0,30.05,NE,45,0.0,0.0,84,0.00,,,0.00,,2013-07-30 06:43:00,
2013-07-30 02:53:00,64.0,59.0,30.05,NE,45,0.0,0.0,84,0.00,,,0.00,,2013-07-30 06:53:00,
2013-07-30 03:03:00,64.0,59.0,30.05,NE,45,0.0,0.0,84,0.00,,,0.00,,2013-07-30 07:03:00,
2013-07-30 03:13:00,63.0,58.0,30.05,NE,45,0.0,0.0,84,0.00,,,0.00,,2013-07-30 07:13:00,
2013-07-30 03:23:00,63.0,58.0,30.05,NE,45,0.0,0.0,84,0.00,,,0.00,,2013-07-30 07:23:00,
2013-07-30 03:33:00,63.0,58.0,30.06,NE,45,0.0,0.0,84,0.00,,,0.00,,2013-07-30 07:33:00,
2013-07-30 03:43:00,63.0,58.0,30.06,NE,45,0.0,0.0,84,0.00,,,0.00,,2013-07-30 07:43:00,
2013-07-30 03:53:00,63.0,58.0,30.06,NE,45,0.0,0.0,84,0.00,,,0.00,,2013-07-30 07:53:00,
2013-07-30 04:03:00,63.0,58.0,30.06,NE,45,0.0,0.0,84,0.00,,,0.00,,2013-07-30 08:03:00,
2013-07-30 04:23:00,63.0,58.0,30.06,NE,45,0.0,0.0,83,0.00,,,0.00,,2013-07-30 08:23:00,
2013-07-30 04:33:00,62.0,57.0,30.06,NE,45,0.0,0.0,83,0.00,,,0.00,,2013-07-30 08:33:00,
2013-07-30 04:43:00,62.0,57.0,30.07,NE,45,0.0,0.0,83,0.00,,,0.00,,2013-07-30 08:43:00,
2013-07-30 04:53:00,62.0,57.0,30.07,NE,45,0.0,0.0,83,0.00,,,0.00,,2013-07-30 08:53:00,
2013-07-30 05:03:00,62.0,56.0,30.07,NE,45,0.0,0.0,82,0.00,,,0.00,,2013-07-30 09:03:00,
2013-07-30 05:33:00,63.0,57.0,30.07,NE,45,0.0,0.0,82,0.00,,,0.00,,2013-07-30 09:33:00,
2013-07-30 05:43:00,62.0,56.0,30.07,NE,45,0.0,0.0,81,0.00,,,0.00,,2013-07-30 09:43:00,
2013-07-30 05:53:00,62.0,56.0,30.07,NE,45,0.0,0.0,81,0.00,,,0.00,,2013-07-30 09:53:00,
2013-07-30 06:03:00,62.0,56.0,30.07,NE,45,0.0,0.0,82,0.00,,,0.00,,2013-07-30 10:03:00,
2013-07-30 06:23:00,61.0,56.0,30.08,NE,45,0.0,0.0,83,0.00,,,0.00,,2013-07-30 10:23:00,
2013-07-30 06:32:00,61.0,56.0,30.08,NE,45,0.0,0.0,84,0.00,,,0.00,,2013-07-30 10:32:00,
2013-07-30 06:44:00,61.0,56.0,30.08,NE,45,0.0,0.0,84,0.00,,,0.00,,2013-07-30 10:44:00,
2013-07-30 06:52:00,61.0,56.0,30.08,NE,45,0.0,0.0,84,0.00,,,0.00,,2013-07-30 10:52:00,
2013-07-30 07:02:00,61.0,56.0,30.08,NE,45,0.0,0.0,84,0.00,,,0.00,,2013-07-30 11:02:00,
2013-07-30 07:11:00,61.0,56.0,30.09,NE,45,0.0,0.0,84,0.00,,,0.00,,2013-07-30 11:11:00,
2013-07-30 07:33:00,62.0,57.0,30.09,NE,45,0.0,0.0,84,0.00,,,0.00,,2013-07-30 11:33:00,
2013-07-30 07:43:00,62.0,57.0,30.09,NE,45,0.0,0.0,83,0.00,,,0.00,,2013-07-30 11:43:00,
2013-07-30 07:53:00,63.0,58.0,30.09,NE,45,0.0,0.0,83,0.00,,,0.00,,2013-07-30 11:53:00,
2013-07-30 08:12:00,64.0,59.0,30.09,NE,45,0.0,0.0,83,0.00,,,0.00,,2013-07-30 12:12:00,
2013-07-30 08:22:00,65.0,59.0,30.09,NE,45,0.0,0.0,82,0.00,,,0.00,,2013-07-30 12:22:00,
2013-07-30 08:33:00,66.0,60.0,30.09,NE,45,0.0,0.0,81,0.00,,,0.00,,2013-07-30 12:33:00,
2013-07-30 08:42:00,66.0,60.0,30.09,NE,45,0.0,0.0,80,0.00,,,0.00,,2013-07-30 12:42:00,
2013-07-30 08:53:00,67.0,60.0,30.10,ENE,68,0.0,0.0,79,0.00,,,0.00,,2013-07-30 12:53:00,
2013-07-30 09:22:00,69.0,61.0,30.10,NE,45,0.0,0.0,77,0.00,,,0.00,,2013-07-30 13:22:00,
2013-07-30 09:33:00,69.0,61.0,30.09,West,270,0.0,1.0,75,0.00,,,0.00,,2013-07-30 13:33:00,
2013-07-30 09:43:00,70.0,61.0,30.10,WNW,293,0.0,7.0,74,0.00,,,0.00,,2013-07-30 13:43:00,
2013-07-30 10:03:00,71.0,62.0,30.10,NE,45,0.0,0.0,72,0.00,,,0.00,,2013-07-30 14:03:00,
2013-07-30 10:43:00,73.0,61.0,30.11,NW,315,4.0,4.0,67,0.00,,,0.00,,2013-07-30 14:43:00,
2013-07-30 10:53:00,73.0,61.0,30.10,NW,315,2.0,2.0,66,0.00,,,0.00,,2013-07-30 14:53:00,
2013-07-30 11:23:00,75.0,62.0,30.10,NNW,338,0.0,6.0,64,0.00,,,0.00,,2013-07-30 15:23:00,
2013-07-30 11:33:00,75.0,61.0,30.10,NE,45,0.0,0.0,62,0.00,,,0.00,,2013-07-30 15:33:00,
2013-07-30 11:43:00,76.0,62.0,30.10,WSW,248,0.0,5.0,62,0.00,,,0.00,,2013-07-30 15:43:00,
2013-07-30 11:52:00,77.0,63.0,30.10,SW,225,0.0,0.0,61,0.00,,,0.00,,2013-07-30 15:52:00,
2013-07-30 12:44:00,81.0,65.0,30.10,West,270,0.0,0.0,58,0.00,,,0.00,,2013-07-30 16:44:00,
2013-07-30 12:52:00,81.0,64.0,30.10,WNW,293,0.0,3.0,57,0.00,,,0.00,,2013-07-30 16:52:00,
2013-07-30 16:52:00,84.0,62.0,30.06,WSW,248,0.0,0.0,48,0.00,,,0.00,,2013-07-30 20:52:00,
2013-07-30 17:02:00,81.0,61.0,30.05,WSW,248,6.0,6.0,50,0.00,,,0.00,,2013-07-30 21:02:00,
2013-07-30 17:22:00,84.0,62.0,30.05,WSW,248,0.0,4.0,47,0.00,,,0.00,,2013-07-30 21:22:00,
2013-07-30 17:32:00,81.0,60.0,30.05,WSW,248,0.0,3.0,49,0.00,,,0.00,,2013-07-30 21:32:00,
2013-07-30 17:42:00,79.0,60.0,30.05,WSW,248,0.0,0.0,52,0.00,,,0.00,,2013-07-30 21:42:00,
2013-07-30 17:52:00,78.0,59.0,30.05,WSW,248,0.0,0.0,53,0.00,,,0.00,,2013-07-30 21:52:00,
2013-07-30 18:02:00,78.0,60.0,30.05,WSW,248,0.0,0.0,54,0.00,,,0.00,,2013-07-30 22:02:00,
2013-07-30 18:12:00,77.0,60.0,30.05,WSW,248,0.0,0.0,56,0.00,,,0.00,,2013-07-30 22:12:00,
2013-07-30 18:22:00,76.0,61.0,30.06,NW,315,0.0,0.0,59,0.00,,,0.00,,2013-07-30 22:22:00,
2013-07-30 18:43:00,76.0,61.0,30.06,ENE,68,0.0,0.0,60,0.00,,,0.00,,2013-07-30 22:43:00,
2013-07-30 18:52:00,75.0,60.0,30.06,ENE,68,0.0,0.0,59,0.00,,,0.00,,2013-07-30 22:52:00,
2013-07-30 19:02:00,74.0,60.0,30.06,ENE,68,0.0,0.0,61,0.00,,,0.00,,2013-07-30 23:02:00,
2013-07-30 19:13:00,74.0,60.0,30.07,ENE,68,0.0,0.0,61,0.00,,,0.00,,2013-07-30 23:13:00,
2013-07-30 19:22:00,74.0,60.0,30.07,ENE,68,0.0,0.0,62,0.00,,,0.00,,2013-07-30 23:22:00,
2013-07-30 19:32:00,73.0,60.0,30.08,ENE,68,0.0,0.0,63,0.00,,,0.00,,2013-07-30 23:32:00,
2013-07-30 19:42:00,72.0,59.0,30.08,ENE,68,0.0,0.0,63,0.00,,,0.00,,2013-07-30 23:42:00,
2013-07-30 19:53:00,72.0,59.0,30.08,ENE,68,0.0,0.0,63,0.00,,,0.00,,2013-07-30 23:53:00,
2013-07-30 20:02:00,71.0,58.0,30.09,ENE,68,0.0,0.0,64,0.00,,,0.00,,2013-07-31 00:02:00,
2013-07-30 20:12:00,71.0,58.0,30.09,ENE,68,0.0,0.0,64,0.00,,,0.00,,2013-07-31 00:12:00,
2013-07-30 20:22:00,70.0,58.0,30.09,ENE,68,0.0,0.0,66,0.00,,,0.00,,2013-07-31 00:22:00,
2013-07-30 20:32:00,70.0,59.0,30.09,ENE,68,0.0,0.0,67,0.00,,,0.00,,2013-07-31 00:32:00,
2013-07-30 20:43:00,69.0,58.0,30.09,ENE,68,0.0,0.0,68,0.00,,,0.00,,2013-07-31 00:43:00,
2013-07-30 20:53:00,69.0,58.0,30.09,ENE,68,0.0,0.0,68,0.00,,,0.00,,2013-07-31 00:53:00,
2013-07-30 21:02:00,68.0,57.0,30.09,ENE,68,0.0,0.0,68,0.00,,,0.00,,2013-07-31 01:02:00,
2013-07-30 21:22:00,68.0,57.0,30.10,ENE,68,0.0,0.0,68,0.00,,,0.00,,2013-07-31 01:22:00,
2013-07-30 21:52:00,68.0,57.0,30.10,ENE,68,0.0,0.0,69,0.00,,,0.00,,2013-07-31 01:52:00,
2013-07-30 22:02:00,67.0,56.0,30.10,ENE,68,0.0,0.0,69,0.00,,,0.00,,2013-07-31 02:02:00,
2013-07-30 22:12:00,67.0,56.0,30.10,ENE,68,0.0,0.0,69,0.00,,,0.00,,2013-07-31 02:12:00,
2013-07-30 22:43:00,67.0,57.0,30.10,ENE,68,0.0,0.0,71,0.00,,,0.00,,2013-07-31 02:43:00,
2013-07-30 22:53:00,66.0,57.0,30.11,NNE,23,0.0,0.0,72,0.00,,,0.00,,2013-07-31 02:53:00,
2013-07-30 23:22:00,66.0,57.0,30.10,NNE,23,0.0,0.0,72,0.00,,,0.00,,2013-07-31 03:22:00,
2013-07-30 23:32:00,66.0,57.0,30.10,NNE,23,0.0,0.0,73,0.00,,,0.00,,2013-07-31 03:32:00,
2013-07-30 23:52:00,65.0,56.0,30.10,NNE,23,0.0,0.0,73,0.00,,,0.00,,2013-07-31 03:52:00,